Terminal Aerodrome Forecast
Issued by NWS

Home | Current Version | Previous Version | Text Only | Print | Product List | Glossary On
Versions: 1 2 3 4 5 6 7 8 9 10 11 12 13 14
000
FTUS43 KICT 201700
TAFSLN
TAF
KSLN 201736Z 2018/2118 22012KT P6SM SCT040
     FM202300 03010KT P6SM SCT050 BKN100
     FM210100 03010KT P6SM VCTS OVC050CB
     FM210800 03010KT P6SM SCT100=

USA.gov is the U.S. government's official web portal to all federal, state and local government web resources and services.